sensor_id;sensor_type;location;lat;lon;timestamp;P1;durP1;ratioP1;P2;durP2;ratioP2
13079;SDS011;6606;49.154;9.280;2023-04-25T00:00:34;3.83;;;3.30;;
13079;SDS011;6606;49.154;9.280;2023-04-25T00:03:16;3.87;;;3.50;;
13079;SDS011;6606;49.154;9.280;2023-04-25T00:05:58;4.30;;;3.90;;
13079;SDS011;6606;49.154;9.280;2023-04-25T00:08:42;4.70;;;4.23;;
13079;SDS011;6606;49.154;9.280;2023-04-25T00:11:25;5.43;;;4.40;;
13079;SDS011;6606;49.154;9.280;2023-04-25T00:14:08;4.20;;;3.80;;
13079;SDS011;6606;49.154;9.280;2023-04-25T00:16:51;5.03;;;4.17;;
13079;SDS011;6606;49.154;9.280;2023-04-25T00:19:34;4.57;;;4.07;;
13079;SDS011;6606;49.154;9.280;2023-04-25T00:22:18;5.03;;;4.27;;
13079;SDS011;6606;49.154;9.280;2023-04-25T00:25:00;5.87;;;5.13;;
13079;SDS011;6606;49.154;9.280;2023-04-25T00:27:41;6.13;;;4.20;;
13079;SDS011;6606;49.154;9.280;2023-04-25T00:30:23;5.03;;;4.30;;
13079;SDS011;6606;49.154;9.280;2023-04-25T00:33:07;5.60;;;4.27;;
13079;SDS011;6606;49.154;9.280;2023-04-25T00:35:51;4.67;;;3.87;;
13079;SDS011;6606;49.154;9.280;2023-04-25T00:38:33;4.60;;;4.07;;
13079;SDS011;6606;49.154;9.280;2023-04-25T00:41:15;3.77;;;3.37;;
13079;SDS011;6606;49.154;9.280;2023-04-25T00:43:57;4.80;;;3.77;;
13079;SDS011;6606;49.154;9.280;2023-04-25T00:46:42;5.10;;;3.63;;
13079;SDS011;6606;49.154;9.280;2023-04-25T00:49:25;4.27;;;3.00;;
13079;SDS011;6606;49.154;9.280;2023-04-25T00:52:07;3.13;;;2.83;;
13079;SDS011;6606;49.154;9.280;2023-04-25T00:54:49;3.83;;;3.10;;
13079;SDS011;6606;49.154;9.280;2023-04-25T00:57:31;3.57;;;3.27;;
13079;SDS011;6606;49.154;9.280;2023-04-25T01:00:13;3.93;;;3.37;;
13079;SDS011;6606;49.154;9.280;2023-04-25T01:02:55;3.23;;;2.93;;
13079;SDS011;6606;49.154;9.280;2023-04-25T01:05:38;4.00;;;3.07;;
13079;SDS011;6606;49.154;9.280;2023-04-25T01:08:23;3.40;;;3.00;;
13079;SDS011;6606;49.154;9.280;2023-04-25T01:11:08;3.90;;;3.47;;
13079;SDS011;6606;49.154;9.280;2023-04-25T01:13:50;3.97;;;3.50;;
13079;SDS011;6606;49.154;9.280;2023-04-25T01:16:32;3.40;;;3.03;;
13079;SDS011;6606;49.154;9.280;2023-04-25T01:19:15;4.60;;;3.00;;
13079;SDS011;6606;49.154;9.280;2023-04-25T01:22:01;3.47;;;3.17;;
13079;SDS011;6606;49.154;9.280;2023-04-25T01:24:44;4.57;;;3.37;;
13079;SDS011;6606;49.154;9.280;2023-04-25T01:27:27;5.73;;;3.50;;
13079;SDS011;6606;49.154;9.280;2023-04-25T01:30:10;3.93;;;3.50;;
13079;SDS011;6606;49.154;9.280;2023-04-25T01:32:54;3.60;;;3.30;;
13079;SDS011;6606;49.154;9.280;2023-04-25T01:35:37;4.43;;;3.47;;
13079;SDS011;6606;49.154;9.280;2023-04-25T01:38:20;4.30;;;3.90;;
13079;SDS011;6606;49.154;9.280;2023-04-25T01:41:02;4.30;;;3.70;;
13079;SDS011;6606;49.154;9.280;2023-04-25T01:43:44;5.33;;;3.90;;
13079;SDS011;6606;49.154;9.280;2023-04-25T01:46:29;4.57;;;3.80;;
13079;SDS011;6606;49.154;9.280;2023-04-25T01:49:11;6.23;;;4.07;;
13079;SDS011;6606;49.154;9.280;2023-04-25T01:51:55;5.33;;;3.83;;
13079;SDS011;6606;49.154;9.280;2023-04-25T01:54:38;4.87;;;3.90;;
13079;SDS011;6606;49.154;9.280;2023-04-25T01:57:24;5.90;;;3.70;;
13079;SDS011;6606;49.154;9.280;2023-04-25T02:00:08;4.20;;;3.80;;
13079;SDS011;6606;49.154;9.280;2023-04-25T02:02:53;4.30;;;3.70;;
13079;SDS011;6606;49.154;9.280;2023-04-25T02:05:44;4.20;;;3.67;;
13079;SDS011;6606;49.154;9.280;2023-04-25T02:08:27;5.20;;;3.67;;
13079;SDS011;6606;49.154;9.280;2023-04-25T02:11:11;4.00;;;3.47;;
13079;SDS011;6606;49.154;9.280;2023-04-25T02:14:00;4.97;;;4.10;;
13079;SDS011;6606;49.154;9.280;2023-04-25T02:16:56;4.33;;;3.83;;
13079;SDS011;6606;49.154;9.280;2023-04-25T02:19:38;4.13;;;3.70;;
13079;SDS011;6606;49.154;9.280;2023-04-25T02:22:21;5.30;;;3.67;;
13079;SDS011;6606;49.154;9.280;2023-04-25T02:25:05;4.97;;;3.67;;
13079;SDS011;6606;49.154;9.280;2023-04-25T02:27:53;5.57;;;3.80;;
13079;SDS011;6606;49.154;9.280;2023-04-25T02:30:35;6.13;;;3.77;;
13079;SDS011;6606;49.154;9.280;2023-04-25T02:33:19;4.73;;;3.70;;
13079;SDS011;6606;49.154;9.280;2023-04-25T02:36:05;6.27;;;3.87;;
13079;SDS011;6606;49.154;9.280;2023-04-25T02:38:47;4.63;;;4.03;;
13079;SDS011;6606;49.154;9.280;2023-04-25T02:41:30;4.20;;;3.40;;
13079;SDS011;6606;49.154;9.280;2023-04-25T02:44:13;4.30;;;3.43;;
13079;SDS011;6606;49.154;9.280;2023-04-25T02:46:55;3.87;;;3.47;;
13079;SDS011;6606;49.154;9.280;2023-04-25T02:49:37;4.07;;;3.47;;
13079;SDS011;6606;49.154;9.280;2023-04-25T02:52:20;5.13;;;3.47;;
13079;SDS011;6606;49.154;9.280;2023-04-25T02:55:12;4.97;;;3.67;;
13079;SDS011;6606;49.154;9.280;2023-04-25T02:57:54;5.40;;;3.40;;
13079;SDS011;6606;49.154;9.280;2023-04-25T03:00:50;6.30;;;3.57;;
13079;SDS011;6606;49.154;9.280;2023-04-25T03:03:32;3.90;;;3.53;;
13079;SDS011;6606;49.154;9.280;2023-04-25T03:06:14;3.87;;;3.47;;
13079;SDS011;6606;49.154;9.280;2023-04-25T03:08:56;3.83;;;3.43;;
13079;SDS011;6606;49.154;9.280;2023-04-25T03:11:38;5.07;;;3.60;;
13079;SDS011;6606;49.154;9.280;2023-04-25T03:14:20;4.33;;;3.50;;
13079;SDS011;6606;49.154;9.280;2023-04-25T03:17:03;4.10;;;3.70;;
13079;SDS011;6606;49.154;9.280;2023-04-25T03:19:45;3.60;;;3.10;;
13079;SDS011;6606;49.154;9.280;2023-04-25T03:22:28;4.50;;;3.83;;
13079;SDS011;6606;49.154;9.280;2023-04-25T03:25:10;5.47;;;3.70;;
13079;SDS011;6606;49.154;9.280;2023-04-25T03:27:52;5.73;;;3.53;;
13079;SDS011;6606;49.154;9.280;2023-04-25T03:30:34;4.57;;;3.20;;
13079;SDS011;6606;49.154;9.280;2023-04-25T03:33:17;4.10;;;3.70;;
13079;SDS011;6606;49.154;9.280;2023-04-25T03:35:59;4.50;;;3.40;;
13079;SDS011;6606;49.154;9.280;2023-04-25T03:38:43;4.10;;;3.70;;
13079;SDS011;6606;49.154;9.280;2023-04-25T03:41:30;6.17;;;4.00;;
13079;SDS011;6606;49.154;9.280;2023-04-25T03:44:17;5.87;;;4.30;;
13079;SDS011;6606;49.154;9.280;2023-04-25T03:46:59;5.77;;;4.20;;
13079;SDS011;6606;49.154;9.280;2023-04-25T03:49:43;4.83;;;4.33;;
13079;SDS011;6606;49.154;9.280;2023-04-25T03:52:25;5.27;;;4.50;;
13079;SDS011;6606;49.154;9.280;2023-04-25T03:55:08;5.57;;;4.43;;
13079;SDS011;6606;49.154;9.280;2023-04-25T03:57:51;5.10;;;4.37;;
13079;SDS011;6606;49.154;9.280;2023-04-25T04:00:33;5.90;;;4.70;;
13079;SDS011;6606;49.154;9.280;2023-04-25T04:03:15;5.27;;;4.77;;
13079;SDS011;6606;49.154;9.280;2023-04-25T04:05:59;6.60;;;4.60;;
13079;SDS011;6606;49.154;9.280;2023-04-25T04:08:41;4.83;;;4.37;;
13079;SDS011;6606;49.154;9.280;2023-04-25T04:11:24;6.10;;;4.30;;
13079;SDS011;6606;49.154;9.280;2023-04-25T04:14:06;5.67;;;4.67;;
13079;SDS011;6606;49.154;9.280;2023-04-25T04:16:52;7.23;;;5.13;;
13079;SDS011;6606;49.154;9.280;2023-04-25T04:19:35;5.43;;;4.93;;
13079;SDS011;6606;49.154;9.280;2023-04-25T04:22:24;5.57;;;4.70;;
13079;SDS011;6606;49.154;9.280;2023-04-25T04:25:14;6.80;;;5.73;;
13079;SDS011;6606;49.154;9.280;2023-04-25T04:28:16;6.10;;;5.50;;
13079;SDS011;6606;49.154;9.280;2023-04-25T04:31:15;7.43;;;5.90;;
13079;SDS011;6606;49.154;9.280;2023-04-25T04:34:00;6.50;;;5.67;;
13079;SDS011;6606;49.154;9.280;2023-04-25T04:36:44;7.17;;;6.30;;
13079;SDS011;6606;49.154;9.280;2023-04-25T04:39:28;6.83;;;5.93;;
13079;SDS011;6606;49.154;9.280;2023-04-25T04:42:32;8.73;;;6.10;;
13079;SDS011;6606;49.154;9.280;2023-04-25T04:45:25;6.47;;;5.87;;
13079;SDS011;6606;49.154;9.280;2023-04-25T04:48:20;9.13;;;6.30;;
13079;SDS011;6606;49.154;9.280;2023-04-25T04:51:31;7.60;;;6.00;;
13079;SDS011;6606;49.154;9.280;2023-04-25T04:54:31;8.47;;;6.80;;
13079;SDS011;6606;49.154;9.280;2023-04-25T04:57:31;7.50;;;6.73;;
13079;SDS011;6606;49.154;9.280;2023-04-25T05:00:46;7.60;;;6.80;;
13079;SDS011;6606;49.154;9.280;2023-04-25T05:03:53;9.87;;;7.80;;
13079;SDS011;6606;49.154;9.280;2023-04-25T05:07:02;8.00;;;7.20;;
13079;SDS011;6606;49.154;9.280;2023-04-25T05:10:06;9.27;;;8.30;;
13079;SDS011;6606;49.154;9.280;2023-04-25T05:13:07;8.27;;;6.97;;
13079;SDS011;6606;49.154;9.280;2023-04-25T05:16:07;6.93;;;6.23;;
13079;SDS011;6606;49.154;9.280;2023-04-25T05:19:03;7.00;;;6.30;;
13079;SDS011;6606;49.154;9.280;2023-04-25T05:22:17;6.80;;;6.00;;
13079;SDS011;6606;49.154;9.280;2023-04-25T05:25:15;6.73;;;5.90;;
13079;SDS011;6606;49.154;9.280;2023-04-25T05:28:15;6.33;;;5.73;;
13079;SDS011;6606;49.154;9.280;2023-04-25T05:30:57;8.80;;;5.93;;
13079;SDS011;6606;49.154;9.280;2023-04-25T05:33:44;8.60;;;6.30;;
13079;SDS011;6606;49.154;9.280;2023-04-25T05:36:26;7.00;;;6.27;;
13079;SDS011;6606;49.154;9.280;2023-04-25T05:39:09;7.13;;;6.37;;
13079;SDS011;6606;49.154;9.280;2023-04-25T05:42:21;7.43;;;6.70;;
13079;SDS011;6606;49.154;9.280;2023-04-25T05:45:25;7.87;;;7.00;;
13079;SDS011;6606;49.154;9.280;2023-04-25T05:48:42;7.87;;;7.07;;
13079;SDS011;6606;49.154;9.280;2023-04-25T05:51:36;8.97;;;7.47;;
13079;SDS011;6606;49.154;9.280;2023-04-25T05:54:41;7.40;;;6.67;;
13079;SDS011;6606;49.154;9.280;2023-04-25T05:57:24;8.90;;;6.97;;
13079;SDS011;6606;49.154;9.280;2023-04-25T06:00:09;7.77;;;6.57;;
13079;SDS011;6606;49.154;9.280;2023-04-25T06:02:57;8.60;;;7.53;;
13079;SDS011;6606;49.154;9.280;2023-04-25T06:05:39;8.13;;;7.17;;
13079;SDS011;6606;49.154;9.280;2023-04-25T06:08:21;9.10;;;8.20;;
13079;SDS011;6606;49.154;9.280;2023-04-25T06:11:02;7.83;;;7.00;;
13079;SDS011;6606;49.154;9.280;2023-04-25T06:13:46;8.97;;;7.10;;
13079;SDS011;6606;49.154;9.280;2023-04-25T06:16:29;10.00;;;8.93;;
13079;SDS011;6606;49.154;9.280;2023-04-25T06:19:11;9.50;;;7.10;;
13079;SDS011;6606;49.154;9.280;2023-04-25T06:21:52;8.80;;;7.70;;
13079;SDS011;6606;49.154;9.280;2023-04-25T06:24:34;8.07;;;7.27;;
13079;SDS011;6606;49.154;9.280;2023-04-25T06:27:18;8.80;;;7.90;;
13079;SDS011;6606;49.154;9.280;2023-04-25T06:30:01;8.87;;;7.97;;
13079;SDS011;6606;49.154;9.280;2023-04-25T06:32:46;9.47;;;8.50;;
13079;SDS011;6606;49.154;9.280;2023-04-25T06:35:28;9.30;;;8.20;;
13079;SDS011;6606;49.154;9.280;2023-04-25T06:38:10;10.27;;;8.60;;
13079;SDS011;6606;49.154;9.280;2023-04-25T06:40:52;9.60;;;8.20;;
13079;SDS011;6606;49.154;9.280;2023-04-25T06:43:35;10.30;;;8.30;;
13079;SDS011;6606;49.154;9.280;2023-04-25T06:46:34;9.63;;;8.50;;
13079;SDS011;6606;49.154;9.280;2023-04-25T06:49:16;9.47;;;8.03;;
13079;SDS011;6606;49.154;9.280;2023-04-25T06:51:58;9.47;;;7.90;;
13079;SDS011;6606;49.154;9.280;2023-04-25T06:54:40;9.57;;;8.13;;
13079;SDS011;6606;49.154;9.280;2023-04-25T06:57:45;10.53;;;8.83;;
13079;SDS011;6606;49.154;9.280;2023-04-25T07:00:58;8.77;;;7.43;;
13079;SDS011;6606;49.154;9.280;2023-04-25T07:03:42;9.90;;;8.87;;
13079;SDS011;6606;49.154;9.280;2023-04-25T07:06:29;8.40;;;7.60;;
13079;SDS011;6606;49.154;9.280;2023-04-25T07:09:11;9.47;;;8.10;;
13079;SDS011;6606;49.154;9.280;2023-04-25T07:11:55;9.87;;;8.93;;
13079;SDS011;6606;49.154;9.280;2023-04-25T07:14:37;8.83;;;7.90;;
13079;SDS011;6606;49.154;9.280;2023-04-25T07:17:19;10.53;;;8.73;;
13079;SDS011;6606;49.154;9.280;2023-04-25T07:20:03;9.83;;;8.43;;
13079;SDS011;6606;49.154;9.280;2023-04-25T07:22:46;8.80;;;7.90;;
13079;SDS011;6606;49.154;9.280;2023-04-25T07:25:27;8.83;;;7.93;;
13079;SDS011;6606;49.154;9.280;2023-04-25T07:28:11;9.07;;;7.23;;
13079;SDS011;6606;49.154;9.280;2023-04-25T07:30:52;9.10;;;7.20;;
13079;SDS011;6606;49.154;9.280;2023-04-25T07:33:34;9.77;;;8.00;;
13079;SDS011;6606;49.154;9.280;2023-04-25T07:36:17;9.50;;;7.80;;
13079;SDS011;6606;49.154;9.280;2023-04-25T07:38:59;10.10;;;8.20;;
13079;SDS011;6606;49.154;9.280;2023-04-25T07:41:42;9.47;;;8.37;;
13079;SDS011;6606;49.154;9.280;2023-04-25T07:44:28;8.33;;;7.50;;
13079;SDS011;6606;49.154;9.280;2023-04-25T07:47:11;10.33;;;8.70;;
13079;SDS011;6606;49.154;9.280;2023-04-25T07:49:53;9.67;;;8.60;;
13079;SDS011;6606;49.154;9.280;2023-04-25T07:52:37;10.63;;;7.57;;
13079;SDS011;6606;49.154;9.280;2023-04-25T07:55:31;11.23;;;8.23;;
13079;SDS011;6606;49.154;9.280;2023-04-25T07:58:23;7.87;;;7.00;;
13079;SDS011;6606;49.154;9.280;2023-04-25T08:01:09;10.20;;;7.03;;
13079;SDS011;6606;49.154;9.280;2023-04-25T08:03:57;9.57;;;6.90;;
13079;SDS011;6606;49.154;9.280;2023-04-25T08:06:56;7.90;;;6.80;;
13079;SDS011;6606;49.154;9.280;2023-04-25T08:09:43;8.10;;;6.80;;
13079;SDS011;6606;49.154;9.280;2023-04-25T08:12:32;7.67;;;6.10;;
13079;SDS011;6606;49.154;9.280;2023-04-25T08:15:15;9.77;;;6.93;;
13079;SDS011;6606;49.154;9.280;2023-04-25T08:17:57;7.60;;;6.90;;
13079;SDS011;6606;49.154;9.280;2023-04-25T08:20:40;7.20;;;6.50;;
13079;SDS011;6606;49.154;9.280;2023-04-25T08:23:24;10.97;;;7.17;;
13079;SDS011;6606;49.154;9.280;2023-04-25T08:26:14;8.97;;;7.20;;
13079;SDS011;6606;49.154;9.280;2023-04-25T08:28:57;8.40;;;6.90;;
13079;SDS011;6606;49.154;9.280;2023-04-25T08:31:38;7.57;;;6.77;;
13079;SDS011;6606;49.154;9.280;2023-04-25T08:34:22;8.23;;;6.80;;
13079;SDS011;6606;49.154;9.280;2023-04-25T08:37:04;7.47;;;6.27;;
13079;SDS011;6606;49.154;9.280;2023-04-25T08:39:58;8.53;;;7.63;;
13079;SDS011;6606;49.154;9.280;2023-04-25T08:42:53;8.23;;;7.00;;
13079;SDS011;6606;49.154;9.280;2023-04-25T08:45:35;9.73;;;6.80;;
13079;SDS011;6606;49.154;9.280;2023-04-25T08:48:18;8.37;;;6.40;;
13079;SDS011;6606;49.154;9.280;2023-04-25T08:50:59;7.03;;;6.23;;
13079;SDS011;6606;49.154;9.280;2023-04-25T08:53:44;8.07;;;6.67;;
13079;SDS011;6606;49.154;9.280;2023-04-25T08:56:29;8.97;;;6.90;;
13079;SDS011;6606;49.154;9.280;2023-04-25T08:59:17;6.90;;;6.20;;
13079;SDS011;6606;49.154;9.280;2023-04-25T09:02:00;7.17;;;6.47;;
13079;SDS011;6606;49.154;9.280;2023-04-25T09:04:43;6.53;;;5.80;;
13079;SDS011;6606;49.154;9.280;2023-04-25T09:07:26;8.17;;;6.87;;
13079;SDS011;6606;49.154;9.280;2023-04-25T09:10:09;7.60;;;6.43;;
13079;SDS011;6606;49.154;9.280;2023-04-25T09:13:01;5.47;;;4.77;;
13079;SDS011;6606;49.154;9.280;2023-04-25T09:15:49;5.77;;;4.80;;
13079;SDS011;6606;49.154;9.280;2023-04-25T09:18:58;5.23;;;4.70;;
13079;SDS011;6606;49.154;9.280;2023-04-25T09:21:40;7.23;;;5.57;;
13079;SDS011;6606;49.154;9.280;2023-04-25T09:24:32;7.37;;;5.63;;
13079;SDS011;6606;49.154;9.280;2023-04-25T09:27:18;9.93;;;7.23;;
13079;SDS011;6606;49.154;9.280;2023-04-25T09:30:05;8.57;;;6.47;;
13079;SDS011;6606;49.154;9.280;2023-04-25T09:33:17;8.83;;;7.27;;
13079;SDS011;6606;49.154;9.280;2023-04-25T09:36:03;12.10;;;8.57;;
13079;SDS011;6606;49.154;9.280;2023-04-25T09:38:58;11.23;;;9.73;;
13079;SDS011;6606;49.154;9.280;2023-04-25T09:41:43;11.33;;;9.13;;
13079;SDS011;6606;49.154;9.280;2023-04-25T09:44:25;15.33;;;10.70;;
13079;SDS011;6606;49.154;9.280;2023-04-25T09:47:09;13.13;;;11.13;;
13079;SDS011;6606;49.154;9.280;2023-04-25T09:49:54;12.10;;;10.40;;
13079;SDS011;6606;49.154;9.280;2023-04-25T09:52:36;11.03;;;8.90;;
13079;SDS011;6606;49.154;9.280;2023-04-25T09:55:30;16.53;;;12.27;;
13079;SDS011;6606;49.154;9.280;2023-04-25T09:58:13;13.17;;;10.37;;
13079;SDS011;6606;49.154;9.280;2023-04-25T10:00:56;10.37;;;8.40;;
13079;SDS011;6606;49.154;9.280;2023-04-25T10:03:51;8.60;;;7.53;;
13079;SDS011;6606;49.154;9.280;2023-04-25T10:06:57;7.83;;;7.00;;
13079;SDS011;6606;49.154;9.280;2023-04-25T10:09:42;9.30;;;7.10;;
13079;SDS011;6606;49.154;9.280;2023-04-25T10:12:28;8.73;;;7.70;;
13079;SDS011;6606;49.154;9.280;2023-04-25T10:15:11;7.13;;;6.10;;
13079;SDS011;6606;49.154;9.280;2023-04-25T10:17:55;10.13;;;6.17;;
13079;SDS011;6606;49.154;9.280;2023-04-25T10:20:37;13.17;;;10.87;;
13079;SDS011;6606;49.154;9.280;2023-04-25T10:23:21;7.53;;;6.67;;
13079;SDS011;6606;49.154;9.280;2023-04-25T10:26:02;7.23;;;5.30;;
13079;SDS011;6606;49.154;9.280;2023-04-25T10:28:55;9.20;;;7.20;;
13079;SDS011;6606;49.154;9.280;2023-04-25T10:31:44;7.93;;;6.30;;
13079;SDS011;6606;49.154;9.280;2023-04-25T10:34:37;9.43;;;6.20;;
13079;SDS011;6606;49.154;9.280;2023-04-25T10:37:21;8.40;;;6.37;;
13079;SDS011;6606;49.154;9.280;2023-04-25T10:40:09;9.57;;;5.80;;
13079;SDS011;6606;49.154;9.280;2023-04-25T10:42:52;7.90;;;5.83;;
13079;SDS011;6606;49.154;9.280;2023-04-25T10:45:44;10.13;;;8.07;;
13079;SDS011;6606;49.154;9.280;2023-04-25T10:48:35;9.90;;;8.23;;
13079;SDS011;6606;49.154;9.280;2023-04-25T10:51:18;10.23;;;8.23;;
13079;SDS011;6606;49.154;9.280;2023-04-25T10:54:04;8.80;;;7.50;;
13079;SDS011;6606;49.154;9.280;2023-04-25T10:56:49;10.23;;;7.07;;
13079;SDS011;6606;49.154;9.280;2023-04-25T10:59:33;7.97;;;7.17;;
13079;SDS011;6606;49.154;9.280;2023-04-25T11:02:15;8.80;;;6.90;;
13079;SDS011;6606;49.154;9.280;2023-04-25T11:04:56;9.23;;;7.13;;
13079;SDS011;6606;49.154;9.280;2023-04-25T11:07:39;8.47;;;7.20;;
13079;SDS011;6606;49.154;9.280;2023-04-25T11:10:30;8.23;;;7.30;;
13079;SDS011;6606;49.154;9.280;2023-04-25T11:13:16;8.17;;;6.20;;
13079;SDS011;6606;49.154;9.280;2023-04-25T11:16:01;9.30;;;6.80;;
13079;SDS011;6606;49.154;9.280;2023-04-25T11:18:43;7.73;;;6.97;;
13079;SDS011;6606;49.154;9.280;2023-04-25T11:21:25;8.40;;;6.50;;
13079;SDS011;6606;49.154;9.280;2023-04-25T11:24:07;7.70;;;6.07;;
13079;SDS011;6606;49.154;9.280;2023-04-25T11:26:49;9.37;;;7.07;;
13079;SDS011;6606;49.154;9.280;2023-04-25T11:29:33;9.80;;;7.60;;
13079;SDS011;6606;49.154;9.280;2023-04-25T11:32:17;8.43;;;7.00;;
13079;SDS011;6606;49.154;9.280;2023-04-25T11:34:59;7.10;;;6.40;;
13079;SDS011;6606;49.154;9.280;2023-04-25T11:37:41;8.20;;;6.80;;
13079;SDS011;6606;49.154;9.280;2023-04-25T11:40:23;6.93;;;6.23;;
13079;SDS011;6606;49.154;9.280;2023-04-25T11:43:05;7.00;;;6.20;;
13079;SDS011;6606;49.154;9.280;2023-04-25T11:45:49;7.83;;;7.07;;
13079;SDS011;6606;49.154;9.280;2023-04-25T11:48:36;8.77;;;7.50;;
13079;SDS011;6606;49.154;9.280;2023-04-25T11:51:18;7.90;;;7.03;;
13079;SDS011;6606;49.154;9.280;2023-04-25T11:54:00;9.33;;;7.13;;
13079;SDS011;6606;49.154;9.280;2023-04-25T11:56:46;7.90;;;7.10;;
13079;SDS011;6606;49.154;9.280;2023-04-25T11:59:27;8.43;;;7.50;;
13079;SDS011;6606;49.154;9.280;2023-04-25T12:02:23;7.20;;;6.50;;
13079;SDS011;6606;49.154;9.280;2023-04-25T12:05:06;9.40;;;7.17;;
13079;SDS011;6606;49.154;9.280;2023-04-25T12:07:48;9.90;;;7.77;;
13079;SDS011;6606;49.154;9.280;2023-04-25T12:10:31;9.17;;;7.73;;
13079;SDS011;6606;49.154;9.280;2023-04-25T12:13:20;9.37;;;8.40;;
13079;SDS011;6606;49.154;9.280;2023-04-25T12:16:03;11.83;;;8.50;;
13079;SDS011;6606;49.154;9.280;2023-04-25T12:18:46;11.73;;;8.90;;
13079;SDS011;6606;49.154;9.280;2023-04-25T12:21:28;10.00;;;8.03;;
13079;SDS011;6606;49.154;9.280;2023-04-25T12:24:11;10.63;;;8.17;;
13079;SDS011;6606;49.154;9.280;2023-04-25T12:27:05;13.00;;;8.30;;
13079;SDS011;6606;49.154;9.280;2023-04-25T12:29:51;10.27;;;8.30;;
13079;SDS011;6606;49.154;9.280;2023-04-25T12:32:34;12.03;;;8.03;;
13079;SDS011;6606;49.154;9.280;2023-04-25T12:35:18;9.83;;;7.30;;
13079;SDS011;6606;49.154;9.280;2023-04-25T12:37:59;11.20;;;8.70;;
13079;SDS011;6606;49.154;9.280;2023-04-25T12:40:41;11.40;;;8.07;;
13079;SDS011;6606;49.154;9.280;2023-04-25T12:43:23;11.93;;;7.43;;
13079;SDS011;6606;49.154;9.280;2023-04-25T12:46:05;15.83;;;8.47;;
13079;SDS011;6606;49.154;9.280;2023-04-25T12:48:47;9.27;;;7.10;;
13079;SDS011;6606;49.154;9.280;2023-04-25T12:51:30;6.47;;;4.10;;
13079;SDS011;6606;49.154;9.280;2023-04-25T12:54:13;8.30;;;4.37;;
13079;SDS011;6606;49.154;9.280;2023-04-25T12:56:54;10.03;;;4.87;;
13079;SDS011;6606;49.154;9.280;2023-04-25T12:59:36;8.20;;;5.47;;
13079;SDS011;6606;49.154;9.280;2023-04-25T13:02:18;9.60;;;5.70;;
13079;SDS011;6606;49.154;9.280;2023-04-25T13:05:00;9.03;;;5.67;;
13079;SDS011;6606;49.154;9.280;2023-04-25T13:07:43;8.17;;;5.40;;
13079;SDS011;6606;49.154;9.280;2023-04-25T13:10:25;8.47;;;5.30;;
13079;SDS011;6606;49.154;9.280;2023-04-25T13:13:07;8.97;;;5.30;;
13079;SDS011;6606;49.154;9.280;2023-04-25T13:15:48;8.77;;;4.67;;
13079;SDS011;6606;49.154;9.280;2023-04-25T13:18:30;6.70;;;4.87;;
13079;SDS011;6606;49.154;9.280;2023-04-25T13:21:12;7.63;;;5.00;;
13079;SDS011;6606;49.154;9.280;2023-04-25T13:23:55;8.53;;;6.57;;
13079;SDS011;6606;49.154;9.280;2023-04-25T13:26:41;9.30;;;5.30;;
13079;SDS011;6606;49.154;9.280;2023-04-25T13:29:26;7.03;;;5.57;;
13079;SDS011;6606;49.154;9.280;2023-04-25T13:32:08;9.13;;;5.53;;
13079;SDS011;6606;49.154;9.280;2023-04-25T13:34:50;9.63;;;6.13;;
13079;SDS011;6606;49.154;9.280;2023-04-25T13:37:33;7.67;;;5.53;;
13079;SDS011;6606;49.154;9.280;2023-04-25T13:40:16;9.27;;;5.77;;
13079;SDS011;6606;49.154;9.280;2023-04-25T13:42:58;8.40;;;5.67;;
13079;SDS011;6606;49.154;9.280;2023-04-25T13:45:39;10.03;;;5.37;;
13079;SDS011;6606;49.154;9.280;2023-04-25T13:48:21;8.70;;;4.80;;
13079;SDS011;6606;49.154;9.280;2023-04-25T13:51:03;6.47;;;3.70;;
13079;SDS011;6606;49.154;9.280;2023-04-25T13:53:45;7.97;;;2.87;;
13079;SDS011;6606;49.154;9.280;2023-04-25T13:56:28;6.70;;;2.90;;
13079;SDS011;6606;49.154;9.280;2023-04-25T13:59:11;3.30;;;2.40;;
13079;SDS011;6606;49.154;9.280;2023-04-25T14:01:53;3.77;;;2.33;;
13079;SDS011;6606;49.154;9.280;2023-04-25T14:04:34;3.57;;;2.57;;
13079;SDS011;6606;49.154;9.280;2023-04-25T14:07:16;2.40;;;2.07;;
13079;SDS011;6606;49.154;9.280;2023-04-25T14:10:01;2.30;;;2.10;;
13079;SDS011;6606;49.154;9.280;2023-04-25T14:12:45;5.57;;;2.37;;
13079;SDS011;6606;49.154;9.280;2023-04-25T14:15:27;3.23;;;2.07;;
13079;SDS011;6606;49.154;9.280;2023-04-25T14:18:09;3.97;;;2.70;;
13079;SDS011;6606;49.154;9.280;2023-04-25T14:20:50;3.67;;;2.70;;
13079;SDS011;6606;49.154;9.280;2023-04-25T14:23:32;3.53;;;3.23;;
13079;SDS011;6606;49.154;9.280;2023-04-25T14:26:14;4.73;;;3.57;;
13079;SDS011;6606;49.154;9.280;2023-04-25T14:28:58;4.80;;;2.97;;
13079;SDS011;6606;49.154;9.280;2023-04-25T14:31:39;6.80;;;2.80;;
13079;SDS011;6606;49.154;9.280;2023-04-25T14:34:21;5.60;;;2.90;;
13079;SDS011;6606;49.154;9.280;2023-04-25T14:37:03;4.38;;;2.78;;
13079;SDS011;6606;49.154;9.280;2023-04-25T14:39:44;4.57;;;2.73;;
13079;SDS011;6606;49.154;9.280;2023-04-25T14:42:26;3.87;;;2.70;;
13079;SDS011;6606;49.154;9.280;2023-04-25T14:45:09;3.43;;;2.50;;
13079;SDS011;6606;49.154;9.280;2023-04-25T14:47:55;3.93;;;2.60;;
13079;SDS011;6606;49.154;9.280;2023-04-25T14:50:36;4.60;;;2.50;;
13079;SDS011;6606;49.154;9.280;2023-04-25T14:53:18;3.77;;;2.83;;
13079;SDS011;6606;49.154;9.280;2023-04-25T14:56:00;3.80;;;2.50;;
13079;SDS011;6606;49.154;9.280;2023-04-25T14:58:52;4.75;;;2.50;;
13079;SDS011;6606;49.154;9.280;2023-04-25T15:01:35;4.10;;;2.75;;
13079;SDS011;6606;49.154;9.280;2023-04-25T15:04:17;4.88;;;3.10;;
13079;SDS011;6606;49.154;9.280;2023-04-25T15:06:58;3.65;;;2.80;;
13079;SDS011;6606;49.154;9.280;2023-04-25T15:09:41;3.73;;;2.60;;
13079;SDS011;6606;49.154;9.280;2023-04-25T15:12:23;4.72;;;2.50;;
13079;SDS011;6606;49.154;9.280;2023-04-25T15:15:08;5.22;;;2.88;;
13079;SDS011;6606;49.154;9.280;2023-04-25T15:17:53;3.97;;;2.60;;
13079;SDS011;6606;49.154;9.280;2023-04-25T15:20:36;3.42;;;2.70;;
13079;SDS011;6606;49.154;9.280;2023-04-25T15:23:17;3.70;;;2.80;;
13079;SDS011;6606;49.154;9.280;2023-04-25T15:25:59;5.32;;;2.67;;
13079;SDS011;6606;49.154;9.280;2023-04-25T15:28:41;3.27;;;2.47;;
13079;SDS011;6606;49.154;9.280;2023-04-25T15:31:23;3.80;;;2.57;;
13079;SDS011;6606;49.154;9.280;2023-04-25T15:34:06;3.90;;;2.40;;
13079;SDS011;6606;49.154;9.280;2023-04-25T15:36:48;5.97;;;2.90;;
13079;SDS011;6606;49.154;9.280;2023-04-25T15:39:30;4.67;;;2.77;;
13079;SDS011;6606;49.154;9.280;2023-04-25T15:42:12;6.47;;;3.03;;
13079;SDS011;6606;49.154;9.280;2023-04-25T15:44:54;5.20;;;2.53;;
13079;SDS011;6606;49.154;9.280;2023-04-25T15:47:36;3.50;;;2.80;;
13079;SDS011;6606;49.154;9.280;2023-04-25T15:50:20;5.50;;;3.03;;
13079;SDS011;6606;49.154;9.280;2023-04-25T15:53:02;4.73;;;3.00;;
13079;SDS011;6606;49.154;9.280;2023-04-25T15:55:45;6.10;;;2.77;;
13079;SDS011;6606;49.154;9.280;2023-04-25T15:58:27;4.97;;;2.70;;
13079;SDS011;6606;49.154;9.280;2023-04-25T16:01:08;5.23;;;3.30;;
13079;SDS011;6606;49.154;9.280;2023-04-25T16:03:51;5.30;;;2.93;;
13079;SDS011;6606;49.154;9.280;2023-04-25T16:06:34;6.93;;;4.80;;
13079;SDS011;6606;49.154;9.280;2023-04-25T16:09:15;5.97;;;3.80;;
13079;SDS011;6606;49.154;9.280;2023-04-25T16:11:58;5.20;;;3.73;;
13079;SDS011;6606;49.154;9.280;2023-04-25T16:14:40;3.73;;;2.60;;
13079;SDS011;6606;49.154;9.280;2023-04-25T16:17:22;5.90;;;2.57;;
13079;SDS011;6606;49.154;9.280;2023-04-25T16:20:04;4.57;;;2.60;;
13079;SDS011;6606;49.154;9.280;2023-04-25T16:22:50;4.57;;;2.47;;
13079;SDS011;6606;49.154;9.280;2023-04-25T16:25:32;5.07;;;2.80;;
13079;SDS011;6606;49.154;9.280;2023-04-25T16:28:14;4.93;;;2.60;;
13079;SDS011;6606;49.154;9.280;2023-04-25T16:30:55;6.90;;;2.83;;
13079;SDS011;6606;49.154;9.280;2023-04-25T16:33:37;4.63;;;3.10;;
13079;SDS011;6606;49.154;9.280;2023-04-25T16:36:19;6.30;;;2.80;;
13079;SDS011;6606;49.154;9.280;2023-04-25T16:39:02;5.77;;;2.83;;
13079;SDS011;6606;49.154;9.280;2023-04-25T16:41:44;3.53;;;2.77;;
13079;SDS011;6606;49.154;9.280;2023-04-25T16:44:26;5.33;;;2.80;;
13079;SDS011;6606;49.154;9.280;2023-04-25T16:47:08;6.53;;;3.30;;
13079;SDS011;6606;49.154;9.280;2023-04-25T16:49:50;6.30;;;2.90;;